X  Sluiten METAR luchtvaart weer gegevens      EHAM Amsterdam Airport Schiphol
Temperatuur
16°C Temperatuur
7°C Dauwpunt
55% Vochtigheid



Wind
11 KM/U
7 MPH
3 M/S
6 KTS



330°
NNW
Huidig weer

Wat bewolking Wat bewolking
Luchtdruk 1009.92 (hPa) - 29.82 (inHg)
Zicht 6.2 (mijl) - 10 (km)
Vliegveld
Vliegveld code EHAM

Locatie : Amsterdam Airport Schiphol
Afstand: 25 (km)

Metar:
EHAM 121425Z 33006KT 260V020 9999 FEW035 16/07 Q1010 NOSIG

Tijd: 12-05-2021 16:25 CEST